Terminal Aerodrome Forecast
Issued by NWS

Home | Current Version | Previous Version | Text Only | Print | Product List | Glossary On
Versions: 1 2 3 4 5 6 7 8 9 10 11 12 13
000
FTUS45 KRIW 270500
TAFLND
TAF
KLND 270528Z 2706/2806 VRB05KT P6SM BKN090
     FM271600 11005KT P6SM VCSH SCT030 BKN050
     FM272200 VRB06KT P6SM VCTS SCT035 BKN045CB
     FM280100 VRB05KT P6SM VCSH SCT040 BKN060
     FM280400 VRB05KT P6SM SCT050 BKN080=

USA.gov is the U.S. government's official web portal to all federal, state and local government web resources and services.